Time;durP1;ratioP1;P1;durP2;ratioP2;P2;SDS_P1;SDS_P2;PMS_P1;PMS_P2;Temp;Humidity;BMP_temperature;BMP_pressure;BME280_temperature;BME280_humidity;BME280_pressure;Samples;Min_cycle;Max_cycle;Signal;HPM_P1;HPM_P2
2022/07/30 00:00:01;;;;;;;4.30;3.90;;;20.10;93.50;;;;;;928582;154;27421;-79
2022/07/30 00:02:27;;;;;;;4.67;4.30;;;20.10;93.60;;;;;;929318;154;27715;-81
2022/07/30 00:04:54;;;;;;;4.35;4.05;;;20.20;93.50;;;;;;945412;151;27345;-80
2022/07/30 00:07:21;;;;;;;4.58;4.17;;;20.20;93.70;;;;;;945653;149;27278;-80
2022/07/30 00:09:47;;;;;;;4.37;4.08;;;20.10;93.70;;;;;;939476;151;27304;-81
2022/07/30 00:12:14;;;;;;;4.37;4.08;;;20.20;93.70;;;;;;945570;148;27317;-80
2022/07/30 00:14:40;;;;;;;4.75;4.35;;;20.20;93.80;;;;;;938623;151;27349;-80
2022/07/30 00:17:07;;;;;;;4.25;3.85;;;20.20;93.80;;;;;;930000;154;27373;-81
2022/07/30 00:19:34;;;;;;;4.45;4.15;;;20.20;93.70;;;;;;945100;151;27322;-81
2022/07/30 00:22:00;;;;;;;4.42;4.12;;;20.20;93.70;;;;;;929189;154;27432;-80
2022/07/30 00:24:27;;;;;;;4.37;4.08;;;20.20;93.70;;;;;;945816;148;27375;-80
2022/07/30 00:26:53;;;;;;;4.58;4.10;;;20.20;93.70;;;;;;930147;154;27430;-78
2022/07/30 00:29:20;;;;;;;4.87;4.47;;;20.10;93.60;;;;;;938290;149;27416;-80
2022/07/30 00:31:47;;;;;;;4.35;4.05;;;20.10;93.60;;;;;;942463;149;27342;-81
2022/07/30 00:34:13;;;;;;;4.47;4.17;;;20.10;93.70;;;;;;942412;149;27286;-80
2022/07/30 00:36:40;;;;;;;4.53;4.22;;;20.10;93.70;;;;;;942275;149;28094;-80
2022/07/30 00:39:06;;;;;;;4.67;4.20;;;20.00;93.90;;;;;;942331;149;27326;-80
2022/07/30 00:41:33;;;;;;;4.35;3.95;;;20.00;93.90;;;;;;942836;149;27369;-81
2022/07/30 00:43:59;;;;;;;4.47;4.15;;;19.90;94.00;;;;;;942504;149;27340;-80
2022/07/30 00:46:26;;;;;;;5.12;4.28;;;19.90;94.10;;;;;;942439;149;27407;-80
2022/07/30 00:48:53;;;;;;;4.75;4.35;;;19.90;94.40;;;;;;942365;149;27299;-80
2022/07/30 00:51:19;;;;;;;4.58;4.28;;;19.80;94.60;;;;;;942616;149;27374;-80
2022/07/30 00:53:46;;;;;;;5.17;4.72;;;19.80;94.90;;;;;;942075;149;27455;-78
2022/07/30 00:56:12;;;;;;;4.83;4.42;;;19.80;95.10;;;;;;942126;149;27369;-81
2022/07/30 00:58:39;;;;;;;5.28;4.83;;;19.80;95.40;;;;;;941502;149;27326;-81
2022/07/30 01:01:06;;;;;;;5.42;5.00;;;19.80;95.70;;;;;;942398;149;27368;-81
2022/07/30 01:03:32;;;;;;;5.05;4.47;;;19.80;95.90;;;;;;942692;149;27414;-80
2022/07/30 01:05:59;;;;;;;4.67;4.37;;;19.80;96.20;;;;;;942769;149;27368;-78
2022/07/30 01:08:25;;;;;;;5.35;4.47;;;19.80;96.40;;;;;;941301;149;27373;-80
2022/07/30 01:10:52;;;;;;;4.70;4.40;;;19.90;96.70;;;;;;941934;149;27313;-81
2022/07/30 01:13:19;;;;;;;4.65;4.25;;;19.90;96.70;;;;;;941822;149;28031;-79
2022/07/30 01:15:45;;;;;;;4.75;4.35;;;19.90;96.80;;;;;;942599;149;27371;-80
2022/07/30 01:18:12;;;;;;;4.60;4.20;;;20.00;96.60;;;;;;941210;149;27368;-80
2022/07/30 01:20:57;;;;;;;5.30;4.83;;;20.00;96.50;;;;;;941976;149;27364;-80
2022/07/30 01:23:26;;;;;;;4.25;3.90;;;20.00;96.30;;;;;;941684;149;27373;-81
2022/07/30 01:26:02;;;;;;;5.62;5.15;;;20.00;96.10;;;;;;941236;149;27338;-81
2022/07/30 01:28:28;;;;;;;4.58;4.17;;;19.90;96.40;;;;;;941677;149;27430;-81
2022/07/30 01:30:55;;;;;;;4.40;4.00;;;19.90;96.00;;;;;;941922;149;27352;-80
2022/07/30 01:33:22;;;;;;;4.85;4.40;;;19.90;95.90;;;;;;941365;149;27431;-79
2022/07/30 01:35:48;;;;;;;5.58;4.67;;;19.80;95.80;;;;;;941527;149;27361;-80
2022/07/30 01:38:15;;;;;;;4.83;4.45;;;19.70;95.80;;;;;;942385;149;27376;-81
2022/07/30 01:40:41;;;;;;;5.42;4.42;;;19.70;95.80;;;;;;941410;149;27347;-80
2022/07/30 01:43:08;;;;;;;4.58;4.15;;;19.70;95.80;;;;;;942115;149;27423;-80
2022/07/30 01:45:34;;;;;;;4.65;4.33;;;19.60;95.90;;;;;;942698;149;27305;-81
2022/07/30 01:48:01;;;;;;;4.40;4.12;;;19.50;95.90;;;;;;942397;149;27447;-81
2022/07/30 01:50:28;;;;;;;4.40;4.00;;;19.50;95.90;;;;;;942651;149;27373;-81
2022/07/30 01:52:54;;;;;;;5.45;4.92;;;19.40;95.80;;;;;;942230;149;27467;-80
2022/07/30 01:55:30;;;;;;;4.85;4.42;;;19.40;96.10;;;;;;941558;149;27291;-80
2022/07/30 01:57:57;;;;;;;5.40;4.90;;;19.30;96.20;;;;;;940892;149;27325;-80
2022/07/30 02:00:24;;;;;;;6.08;5.45;;;19.30;96.30;;;;;;942031;149;27325;-79
2022/07/30 02:02:50;;;;;;;5.25;4.85;;;19.20;96.40;;;;;;942495;149;27361;-79
2022/07/30 02:05:17;;;;;;;6.53;5.08;;;19.10;96.50;;;;;;941338;149;27455;-81
2022/07/30 02:07:46;;;;;;;5.40;4.40;;;19.10;96.60;;;;;;941918;149;27390;-81
2022/07/30 02:10:15;;;;;;;5.20;4.90;;;19.10;96.60;;;;;;941980;149;27310;-81
2022/07/30 02:12:42;;;;;;;5.78;5.28;;;19.00;96.70;;;;;;942076;149;27441;-78
2022/07/30 02:15:14;;;;;;;6.83;6.33;;;18.90;96.70;;;;;;941395;149;27354;-81
2022/07/30 02:17:43;;;;;;;5.13;4.60;;;18.90;96.90;;;;;;942047;149;27293;-80
2022/07/30 02:20:10;;;;;;;6.25;5.75;;;18.90;96.90;;;;;;941001;149;27313;-80
2022/07/30 02:22:37;;;;;;;5.05;4.65;;;18.80;97.20;;;;;;941797;149;27357;-78
2022/07/30 02:25:03;;;;;;;5.70;5.20;;;18.80;97.40;;;;;;942034;149;27449;-80
2022/07/30 02:27:32;;;;;;;5.40;4.97;;;18.70;97.50;;;;;;942369;149;27363;-80
2022/07/30 02:29:59;;;;;;;5.42;5.03;;;18.70;97.50;;;;;;937288;149;27857;-80
2022/07/30 02:32:25;;;;;;;5.75;5.12;;;18.70;97.60;;;;;;928576;152;27724;-80
2022/07/30 02:34:52;;;;;;;5.67;5.28;;;18.60;97.70;;;;;;930828;153;27425;-80
2022/07/30 02:37:21;;;;;;;5.40;5.10;;;18.60;97.70;;;;;;929681;153;27422;-81
2022/07/30 02:39:47;;;;;;;6.17;4.90;;;18.60;97.80;;;;;;930323;153;27285;-80
2022/07/30 02:42:12;;;;;;;5.03;4.62;;;18.60;97.90;;;;;;929607;153;27322;-80
2022/07/30 02:44:38;;;;;;;5.40;5.00;;;18.50;98.00;;;;;;926532;154;27290;-78
2022/07/30 02:47:05;;;;;;;5.42;5.00;;;18.50;98.10;;;;;;944886;151;27533;-80
2022/07/30 02:49:31;;;;;;;5.55;5.05;;;18.40;98.10;;;;;;930279;152;27476;-80
2022/07/30 02:51:58;;;;;;;5.87;5.40;;;18.40;98.20;;;;;;930308;151;27342;-74
2022/07/30 02:54:24;;;;;;;5.00;4.65;;;18.40;98.30;;;;;;930153;154;27422;-75
2022/07/30 02:56:51;;;;;;;5.78;5.30;;;18.40;98.40;;;;;;929436;152;27334;-76
2022/07/30 02:59:18;;;;;;;5.35;4.95;;;18.30;98.50;;;;;;929619;152;27418;-78
2022/07/30 03:01:44;;;;;;;5.22;4.78;;;18.30;98.60;;;;;;929265;152;27449;-75
2022/07/30 03:04:11;;;;;;;5.85;5.35;;;18.30;98.60;;;;;;929481;152;28359;-76
2022/07/30 03:06:37;;;;;;;5.55;5.12;;;18.20;98.70;;;;;;929349;154;27367;-77
2022/07/30 03:09:04;;;;;;;5.92;5.47;;;18.20;98.70;;;;;;930134;153;27340;-75
2022/07/30 03:11:31;;;;;;;6.67;5.40;;;18.20;98.80;;;;;;946468;148;27816;-78
2022/07/30 03:13:57;;;;;;;6.22;5.60;;;18.10;98.80;;;;;;930646;153;27872;-76
2022/07/30 03:16:24;;;;;;;5.85;5.45;;;18.10;99.00;;;;;;930822;152;27370;-75
2022/07/30 03:18:50;;;;;;;6.08;5.67;;;18.10;99.10;;;;;;945607;149;27391;-75
2022/07/30 03:21:17;;;;;;;6.10;5.70;;;18.10;99.30;;;;;;938621;151;27725;-75
2022/07/30 03:23:43;;;;;;;6.85;6.25;;;18.10;99.50;;;;;;939771;151;27343;-75
2022/07/30 03:26:10;;;;;;;5.47;5.08;;;18.00;99.60;;;;;;929349;154;27323;-77
2022/07/30 03:28:37;;;;;;;6.53;5.85;;;18.00;99.70;;;;;;941172;149;27754;-75
2022/07/30 03:31:04;;;;;;;6.20;5.77;;;18.00;99.70;;;;;;943801;149;27349;-75
2022/07/30 03:33:30;;;;;;;6.47;5.80;;;18.00;99.70;;;;;;939014;150;27314;-75
2022/07/30 03:35:56;;;;;;;7.13;6.00;;;18.00;99.80;;;;;;938759;150;27280;-75
2022/07/30 03:38:23;;;;;;;15.10;7.07;;;18.00;99.90;;;;;;938525;150;27353;-77
2022/07/30 03:40:50;;;;;;;17.17;7.15;;;17.90;99.90;;;;;;938584;150;27390;-74
2022/07/30 03:43:16;;;;;;;23.53;7.40;;;17.90;99.90;;;;;;939061;150;27337;-75
2022/07/30 03:45:43;;;;;;;14.75;6.25;;;18.00;99.90;;;;;;938917;150;27409;-76
2022/07/30 03:48:10;;;;;;;35.60;7.72;;;18.00;99.90;;;;;;939610;150;27334;-75
2022/07/30 03:50:36;;;;;;;47.33;7.70;;;18.00;99.90;;;;;;938160;150;27314;-76
2022/07/30 03:53:03;;;;;;;11.40;5.92;;;18.00;99.90;;;;;;926620;151;27422;-75
2022/07/30 03:55:29;;;;;;;31.85;8.05;;;18.00;99.90;;;;;;938861;150;27362;-75
2022/07/30 03:57:56;;;;;;;37.48;8.45;;;18.10;99.90;;;;;;939079;150;27791;-75
2022/07/30 04:00:22;;;;;;;45.13;10.43;;;18.10;99.90;;;;;;927305;151;27295;-74
2022/07/30 04:02:49;;;;;;;23.47;7.57;;;18.10;99.90;;;;;;944107;148;27286;-76
2022/07/30 04:05:16;;;;;;;12.50;7.10;;;18.20;99.90;;;;;;938715;150;27345;-77
2022/07/30 04:07:42;;;;;;;7.47;6.78;;;18.20;99.90;;;;;;939197;149;27362;-74
2022/07/30 04:10:09;;;;;;;12.37;6.72;;;18.30;99.90;;;;;;938582;150;27443;-78
2022/07/30 04:12:35;;;;;;;8.15;6.67;;;18.30;99.90;;;;;;931646;150;27405;-75
2022/07/30 04:15:02;;;;;;;11.57;6.97;;;18.40;99.90;;;;;;927301;150;27347;-75
2022/07/30 04:17:29;;;;;;;7.50;6.37;;;18.40;99.90;;;;;;942403;149;27387;-76
2022/07/30 04:20:01;;;;;;;6.45;5.85;;;18.50;99.90;;;;;;942080;149;27451;-75
2022/07/30 04:22:28;;;;;;;13.37;6.70;;;18.50;99.90;;;;;;941395;149;27306;-74
2022/07/30 04:24:55;;;;;;;13.62;6.58;;;18.50;99.90;;;;;;941864;149;27707;-76
2022/07/30 04:27:21;;;;;;;12.63;6.58;;;18.60;99.90;;;;;;942594;149;27353;-75
2022/07/30 04:29:47;;;;;;;17.73;7.25;;;18.60;99.90;;;;;;942391;149;27362;-78
2022/07/30 04:32:14;;;;;;;18.12;6.65;;;18.60;99.90;;;;;;933716;149;27384;-75
2022/07/30 04:34:49;;;;;;;13.45;6.28;;;18.70;99.90;;;;;;935527;151;27468;-75
2022/07/30 04:37:16;;;;;;;8.45;5.92;;;18.70;99.90;;;;;;928195;154;27320;-76
2022/07/30 04:39:42;;;;;;;8.43;6.10;;;18.70;99.90;;;;;;945430;148;27286;-76
2022/07/30 04:42:09;;;;;;;6.30;5.80;;;18.70;99.90;;;;;;930575;154;27501;-77
2022/07/30 04:44:36;;;;;;;9.83;6.50;;;18.70;99.90;;;;;;930809;152;27679;-76
2022/07/30 04:47:02;;;;;;;6.30;5.78;;;18.80;99.90;;;;;;932060;151;27339;-75
2022/07/30 04:49:29;;;;;;;19.90;7.33;;;18.70;99.90;;;;;;945542;151;27375;-75
2022/07/30 04:51:55;;;;;;;15.70;6.00;;;18.80;99.90;;;;;;928479;154;27392;-74
2022/07/30 04:54:22;;;;;;;18.10;6.83;;;18.80;99.90;;;;;;946938;151;27260;-75
2022/07/30 04:56:49;;;;;;;10.75;6.85;;;18.80;99.90;;;;;;945921;149;27708;-78
2022/07/30 04:59:16;;;;;;;14.50;7.55;;;18.80;99.90;;;;;;939351;151;27318;-74
2022/07/30 05:01:42;;;;;;;7.00;6.40;;;18.90;99.90;;;;;;931057;151;27435;-74
2022/07/30 05:04:08;;;;;;;7.30;6.62;;;18.80;99.90;;;;;;931472;151;27393;-75
2022/07/30 05:06:35;;;;;;;14.30;7.22;;;18.80;99.90;;;;;;945368;148;27324;-77
2022/07/30 05:09:01;;;;;;;16.20;7.83;;;18.90;99.90;;;;;;927967;154;27339;-77
2022/07/30 05:11:28;;;;;;;18.27;7.87;;;18.90;99.90;;;;;;928570;154;27380;-74
2022/07/30 05:13:55;;;;;;;11.08;7.37;;;19.00;99.90;;;;;;940034;151;27319;-75
2022/07/30 05:16:21;;;;;;;9.63;7.25;;;19.00;99.90;;;;;;929943;154;27406;-75
2022/07/30 05:18:48;;;;;;;10.65;6.78;;;19.10;99.90;;;;;;930359;154;27419;-75
2022/07/30 05:21:15;;;;;;;19.82;7.65;;;19.20;99.90;;;;;;929770;154;27354;-78
2022/07/30 05:23:41;;;;;;;8.08;7.12;;;19.30;99.90;;;;;;930236;153;27628;-75
2022/07/30 05:26:08;;;;;;;9.23;7.80;;;19.40;99.90;;;;;;930581;154;27852;-75
2022/07/30 05:28:34;;;;;;;11.18;7.25;;;19.50;99.90;;;;;;930442;154;27399;-75
2022/07/30 05:31:01;;;;;;;7.62;6.90;;;19.60;99.90;;;;;;930555;154;27346;-75
2022/07/30 05:33:27;;;;;;;14.47;6.67;;;19.70;99.90;;;;;;941250;149;27390;-75
2022/07/30 05:35:54;;;;;;;16.37;6.72;;;19.80;99.90;;;;;;942750;149;27376;-78
2022/07/30 05:38:21;;;;;;;7.78;6.42;;;20.00;99.90;;;;;;942126;149;27442;-75
2022/07/30 05:40:47;;;;;;;8.10;6.17;;;20.10;99.90;;;;;;942410;149;27305;-75
2022/07/30 05:43:14;;;;;;;7.40;5.65;;;20.20;99.90;;;;;;942037;149;27781;-75
2022/07/30 05:45:40;;;;;;;8.20;6.10;;;20.30;99.90;;;;;;942362;149;27395;-75
2022/07/30 05:48:07;;;;;;;5.78;5.35;;;20.40;99.90;;;;;;942228;149;27404;-76
2022/07/30 05:50:34;;;;;;;10.03;6.10;;;20.50;99.90;;;;;;942439;149;27369;-75
2022/07/30 05:53:00;;;;;;;6.55;5.87;;;20.60;99.90;;;;;;941954;149;28006;-75
2022/07/30 05:55:27;;;;;;;6.47;5.87;;;20.80;99.90;;;;;;941928;149;27329;-74
2022/07/30 05:57:53;;;;;;;6.65;5.22;;;20.90;99.90;;;;;;941198;149;27987;-75
2022/07/30 06:00:20;;;;;;;6.40;6.00;;;21.10;99.90;;;;;;941728;149;27340;-75
2022/07/30 06:02:46;;;;;;;6.75;5.65;;;21.30;99.90;;;;;;940872;149;27463;-76
2022/07/30 06:05:13;;;;;;;6.03;5.62;;;21.50;99.90;;;;;;941303;149;27473;-75
2022/07/30 06:07:40;;;;;;;5.87;5.12;;;21.70;99.90;;;;;;941906;149;27366;-75
2022/07/30 06:10:06;;;;;;;7.00;5.80;;;22.00;99.90;;;;;;941943;149;27321;-75
2022/07/30 06:12:33;;;;;;;5.85;5.45;;;22.20;99.90;;;;;;941864;149;27315;-78
2022/07/30 06:14:59;;;;;;;5.25;4.85;;;22.40;99.90;;;;;;942966;149;27331;-78
2022/07/30 06:17:26;;;;;;;6.75;6.15;;;22.70;99.90;;;;;;942732;149;27441;-75
2022/07/30 06:19:53;;;;;;;5.17;4.78;;;23.10;99.80;;;;;;942458;149;27296;-75
2022/07/30 06:22:19;;;;;;;4.60;4.30;;;23.30;98.90;;;;;;941698;149;27741;-76
2022/07/30 06:24:46;;;;;;;4.92;4.62;;;23.70;98.20;;;;;;942372;149;27293;-76
2022/07/30 06:27:12;;;;;;;5.17;4.87;;;24.00;97.00;;;;;;941989;149;27322;-76
2022/07/30 06:29:39;;;;;;;5.08;4.67;;;24.30;96.10;;;;;;942126;149;27362;-75
2022/07/30 06:32:06;;;;;;;4.95;4.65;;;24.60;95.60;;;;;;940271;149;27468;-75
2022/07/30 06:34:32;;;;;;;5.37;4.90;;;24.90;95.40;;;;;;936310;153;27365;-76
2022/07/30 06:36:59;;;;;;;5.50;5.00;;;25.30;94.70;;;;;;945064;148;27407;-75
2022/07/30 06:39:25;;;;;;;4.53;4.22;;;25.70;93.90;;;;;;945853;148;27356;-76
2022/07/30 06:41:52;;;;;;;4.47;4.17;;;26.00;92.60;;;;;;928814;154;27485;-78
2022/07/30 06:44:18;;;;;;;4.03;3.72;;;26.40;91.40;;;;;;927933;152;27373;-75
2022/07/30 06:46:45;;;;;;;4.15;3.85;;;26.80;90.70;;;;;;928429;154;27359;-76
2022/07/30 06:49:12;;;;;;;4.40;4.10;;;27.20;90.80;;;;;;927438;154;27373;-76
2022/07/30 06:51:38;;;;;;;4.97;4.67;;;27.70;91.40;;;;;;930285;154;27394;-75
2022/07/30 06:54:05;;;;;;;4.75;4.35;;;28.40;90.90;;;;;;940062;151;27305;-78
2022/07/30 06:56:31;;;;;;;4.25;3.98;;;29.20;89.30;;;;;;929554;154;27455;-75
2022/07/30 06:58:58;;;;;;;3.65;3.35;;;30.00;85.70;;;;;;945264;148;27368;-76
2022/07/30 07:01:25;;;;;;;3.98;3.67;;;30.70;82.20;;;;;;931273;151;27503;-75
2022/07/30 07:03:51;;;;;;;3.75;3.55;;;31.50;78.20;;;;;;944906;148;27299;-76
2022/07/30 07:06:18;;;;;;;3.65;3.45;;;32.20;75.90;;;;;;945113;148;27826;-76
2022/07/30 07:08:44;;;;;;;3.55;3.35;;;32.90;73.80;;;;;;929615;151;26269;-75
2022/07/30 07:11:11;;;;;;;3.42;3.22;;;33.60;71.30;;;;;;931284;151;26266;-76
2022/07/30 07:13:38;;;;;;;3.92;3.62;;;34.40;69.50;;;;;;945339;151;26158;-76
2022/07/30 07:16:04;;;;;;;3.45;3.15;;;35.10;66.90;;;;;;945348;149;26358;-76
2022/07/30 07:18:31;;;;;;;3.58;3.35;;;35.80;64.70;;;;;;945796;149;26314;-76
2022/07/30 07:20:57;;;;;;;2.72;2.52;;;36.50;62.50;;;;;;938814;151;26294;-78
2022/07/30 07:23:24;;;;;;;2.65;2.45;;;37.10;60.30;;;;;;930345;152;26358;-77
2022/07/30 07:25:50;;;;;;;3.30;3.10;;;37.60;59.00;;;;;;930307;154;26225;-79
2022/07/30 07:28:17;;;;;;;2.85;2.65;;;38.10;57.90;;;;;;929687;151;26228;-76
2022/07/30 07:30:44;;;;;;;2.67;2.47;;;38.60;56.80;;;;;;930045;152;26299;-76
2022/07/30 07:33:11;;;;;;;2.47;2.37;;;39.20;55.90;;;;;;933410;149;26285;-77
2022/07/30 07:35:37;;;;;;;2.35;2.20;;;39.60;54.60;;;;;;941990;149;26622;-77
2022/07/30 07:38:03;;;;;;;2.15;2.02;;;40.10;53.50;;;;;;941671;149;28551;-76
2022/07/30 07:40:30;;;;;;;2.40;2.30;;;40.60;52.70;;;;;;942813;149;26595;-77
2022/07/30 07:42:57;;;;;;;3.75;2.60;;;41.10;51.50;;;;;;942673;149;26291;-77
2022/07/30 07:45:23;;;;;;;3.08;2.70;;;41.40;50.30;;;;;;942156;149;26298;-79
2022/07/30 07:47:50;;;;;;;2.30;2.20;;;41.90;49.20;;;;;;942722;149;26269;-77
2022/07/30 07:50:16;;;;;;;2.50;2.40;;;42.20;48.40;;;;;;942363;149;26754;-77
2022/07/30 07:52:43;;;;;;;2.52;2.33;;;42.50;47.70;;;;;;942590;149;26261;-77
2022/07/30 07:55:10;;;;;;;2.45;2.25;;;42.80;46.80;;;;;;941728;149;26239;-77
2022/07/30 07:57:39;;;;;;;2.83;2.52;;;43.00;46.20;;;;;;942114;148;26322;-77
2022/07/30 08:00:06;;;;;;;2.80;2.50;;;43.20;45.60;;;;;;941653;149;26269;-79
2022/07/30 08:02:32;;;;;;;2.80;2.60;;;43.40;45.00;;;;;;942476;149;26275;-77
2022/07/30 08:04:59;;;;;;;2.83;2.62;;;43.60;44.50;;;;;;942246;149;28506;-77
2022/07/30 08:07:26;;;;;;;2.60;2.40;;;43.80;44.30;;;;;;941476;149;26292;-77
2022/07/30 08:09:52;;;;;;;4.37;2.40;;;44.00;43.60;;;;;;941969;149;26261;-77
2022/07/30 08:12:19;;;;;;;2.50;2.30;;;44.20;43.10;;;;;;942114;149;26246;-78
2022/07/30 08:14:45;;;;;;;2.47;2.27;;;44.40;42.40;;;;;;941707;150;26276;-77
2022/07/30 08:17:12;;;;;;;2.90;2.70;;;44.60;41.70;;;;;;942266;149;26273;-77
2022/07/30 08:19:38;;;;;;;2.33;2.22;;;44.70;41.00;;;;;;942233;149;26240;-77
2022/07/30 08:22:05;;;;;;;2.40;2.20;;;44.80;40.50;;;;;;941336;149;26240;-78
2022/07/30 08:24:32;;;;;;;2.37;2.17;;;44.90;40.50;;;;;;941927;149;26261;-77
2022/07/30 08:26:58;;;;;;;2.12;2.02;;;45.00;40.10;;;;;;941706;149;26230;-79
2022/07/30 08:29:25;;;;;;;2.25;2.15;;;45.10;39.90;;;;;;942260;149;26291;-78
2022/07/30 08:31:51;;;;;;;2.87;1.90;;;45.30;39.60;;;;;;941688;149;26332;-77
2022/07/30 08:34:19;;;;;;;1.60;1.50;;;45.40;39.30;;;;;;943436;149;26249;-78
2022/07/30 08:36:45;;;;;;;2.17;1.98;;;45.70;39.00;;;;;;925520;154;26341;-78
2022/07/30 08:39:11;;;;;;;1.90;1.80;;;45.90;38.30;;;;;;932477;150;26222;-79
2022/07/30 08:41:38;;;;;;;1.90;1.80;;;46.10;37.50;;;;;;948409;148;26919;-78
2022/07/30 08:44:04;;;;;;;1.90;1.80;;;46.40;37.10;;;;;;948005;148;26240;-77
2022/07/30 08:46:31;;;;;;;2.25;2.00;;;46.50;36.60;;;;;;931059;151;26287;-78
2022/07/30 08:48:58;;;;;;;2.55;2.30;;;46.70;35.80;;;;;;931653;154;26223;-79
2022/07/30 08:51:24;;;;;;;2.52;2.15;;;47.00;35.40;;;;;;948938;148;26273;-78
2022/07/30 08:53:51;;;;;;;2.83;2.00;;;47.20;34.70;;;;;;941692;150;26336;-79
2022/07/30 08:56:17;;;;;;;2.33;1.92;;;47.30;34.20;;;;;;931280;151;26296;-77
2022/07/30 08:58:44;;;;;;;2.35;2.12;;;47.40;33.80;;;;;;951926;148;26252;-78
2022/07/30 09:01:11;;;;;;;2.62;2.30;;;47.40;33.60;;;;;;930898;154;26253;-78
2022/07/30 09:03:37;;;;;;;3.80;2.55;;;47.50;33.50;;;;;;931377;151;26368;-77
2022/07/30 09:06:04;;;;;;;5.15;2.12;;;47.30;32.60;;;;;;947742;148;26326;-80
2022/07/30 09:08:30;;;;;;;2.45;2.25;;;47.00;32.00;;;;;;940290;150;26731;-78
2022/07/30 09:10:57;;;;;;;2.27;2.08;;;46.50;31.30;;;;;;930499;152;26287;-77
2022/07/30 09:13:26;;;;;;;5.37;2.42;;;45.80;31.20;;;;;;947454;148;26227;-77
2022/07/30 09:15:53;;;;;;;3.17;2.42;;;45.00;31.30;;;;;;941121;150;26288;-77
2022/07/30 09:18:31;;;;;;;2.45;2.25;;;44.20;31.50;;;;;;948421;151;28124;-76
2022/07/30 09:21:01;;;;;;;2.35;2.15;;;43.50;32.40;;;;;;947507;151;26342;-76
2022/07/30 09:23:27;;;;;;;2.62;2.20;;;42.90;32.90;;;;;;945624;151;26221;-76
2022/07/30 09:25:55;;;;;;;3.12;2.20;;;42.40;33.00;;;;;;947958;151;26248;-77
2022/07/30 09:28:26;;;;;;;2.37;2.02;;;42.00;33.30;;;;;;947192;150;26302;-77
2022/07/30 09:30:53;;;;;;;1.95;1.80;;;41.60;33.50;;;;;;946003;150;26261;-79
2022/07/30 09:33:32;;;;;;;2.12;1.92;;;41.30;33.40;;;;;;946090;151;26368;-77
2022/07/30 09:35:58;;;;;;;2.58;2.30;;;41.00;34.00;;;;;;943265;151;28466;-77
2022/07/30 09:38:25;;;;;;;2.20;2.00;;;40.50;33.50;;;;;;943351;148;27276;-76
2022/07/30 09:40:52;;;;;;;2.50;2.33;;;40.00;33.30;;;;;;943545;151;26334;-78
2022/07/30 09:43:18;;;;;;;2.95;2.70;;;39.40;33.40;;;;;;944264;151;27332;-76
2022/07/30 09:45:54;;;;;;;2.62;2.40;;;38.80;33.60;;;;;;945188;151;27510;-77
2022/07/30 09:48:26;;;;;;;3.10;2.70;;;38.10;33.90;;;;;;944916;151;27693;-76
2022/07/30 09:50:52;;;;;;;2.85;2.55;;;37.30;33.80;;;;;;942952;151;27410;-76
2022/07/30 09:53:21;;;;;;;3.52;2.75;;;36.60;34.20;;;;;;945169;148;27358;-76
2022/07/30 09:55:46;;;;;;;2.60;2.40;;;35.90;34.50;;;;;;944894;151;27441;-78
2022/07/30 09:58:12;;;;;;;2.47;2.15;;;35.30;35.00;;;;;;944335;151;27714;-76
2022/07/30 10:00:39;;;;;;;2.75;2.02;;;34.80;35.80;;;;;;945188;151;28402;-76
2022/07/30 10:03:17;;;;;;;2.90;2.08;;;34.40;36.60;;;;;;945395;151;27380;-76
2022/07/30 10:05:53;;;;;;;3.05;2.52;;;34.10;36.90;;;;;;945031;149;27325;-76
2022/07/30 10:08:20;;;;;;;2.62;2.10;;;34.00;37.10;;;;;;944566;151;27354;-78
2022/07/30 10:10:46;;;;;;;2.60;2.40;;;33.80;37.20;;;;;;944608;151;27361;-76
2022/07/30 10:13:13;;;;;;;2.40;2.20;;;33.70;37.30;;;;;;944896;151;27323;-75
2022/07/30 10:15:39;;;;;;;3.27;2.58;;;33.50;37.30;;;;;;945132;151;27420;-76
2022/07/30 10:18:07;;;;;;;2.65;2.42;;;33.30;37.60;;;;;;944952;151;27318;-76
2022/07/30 10:20:34;;;;;;;3.98;2.70;;;33.10;38.00;;;;;;944876;151;27412;-76
2022/07/30 10:23:00;;;;;;;2.77;2.12;;;32.90;38.60;;;;;;944864;151;27323;-76
2022/07/30 10:25:27;;;;;;;3.55;2.70;;;32.70;39.30;;;;;;945058;151;27299;-77
2022/07/30 10:27:53;;;;;;;2.60;2.33;;;32.70;39.50;;;;;;944872;151;27365;-77
2022/07/30 10:30:20;;;;;;;4.05;2.70;;;32.60;39.60;;;;;;944630;151;27454;-76
2022/07/30 10:32:46;;;;;;;2.52;2.33;;;32.70;39.60;;;;;;945294;151;27330;-76
2022/07/30 10:35:13;;;;;;;2.67;2.42;;;32.80;39.60;;;;;;945387;151;27350;-76
2022/07/30 10:37:45;;;;;;;2.42;2.12;;;33.00;39.60;;;;;;944178;151;27690;-77
2022/07/30 10:40:18;;;;;;;2.95;2.22;;;33.30;39.10;;;;;;943941;151;27496;-76
2022/07/30 10:43:06;;;;;;;2.65;2.45;;;33.50;39.00;;;;;;929350;154;27339;-76
2022/07/30 10:45:48;;;;;;;4.45;2.70;;;33.60;38.10;;;;;;928241;154;27403;-76
2022/07/30 10:48:14;;;;;;;3.87;2.80;;;33.70;37.60;;;;;;929078;152;27328;-76
2022/07/30 10:50:52;;;;;;;2.80;2.58;;;33.80;37.60;;;;;;934361;152;27689;-76
2022/07/30 10:53:38;;;;;;;2.58;2.22;;;33.80;37.50;;;;;;944303;148;27483;-79
2022/07/30 10:56:17;;;;;;;3.62;2.20;;;33.90;37.60;;;;;;928407;154;27872;-78
2022/07/30 10:59:06;;;;;;;3.45;2.22;;;33.90;37.70;;;;;;927892;153;27290;-77
2022/07/30 11:01:48;;;;;;;2.12;1.67;;;33.90;38.00;;;;;;929576;154;27314;-76
2022/07/30 11:04:20;;;;;;;1.98;1.85;;;33.90;38.00;;;;;;945597;148;27758;-77
2022/07/30 11:06:47;;;;;;;4.37;1.92;;;33.90;38.10;;;;;;944147;149;27463;-78
2022/07/30 11:09:38;;;;;;;3.30;2.20;;;33.90;37.30;;;;;;939742;151;27757;-76
2022/07/30 11:12:07;;;;;;;2.27;2.02;;;34.00;37.10;;;;;;929148;154;27475;-77
2022/07/30 11:14:46;;;;;;;1.87;1.70;;;34.00;36.40;;;;;;930264;151;27394;-77
2022/07/30 11:17:15;;;;;;;1.70;1.60;;;33.90;36.80;;;;;;944424;151;27349;-76
2022/07/30 11:20:05;;;;;;;2.37;2.17;;;33.90;36.70;;;;;;945783;149;27415;-77
2022/07/30 11:22:34;;;;;;;2.15;1.92;;;33.90;36.90;;;;;;930020;153;27683;-78
2022/07/30 11:24:57;;;;;;;3.00;2.35;;;33.90;37.10;;;;;;927799;154;27440;-76
2022/07/30 11:27:41;;;;;;;3.33;2.22;;;33.90;37.20;;;;;;928630;154;27350;-77
2022/07/30 11:30:17;;;;;;;3.05;2.10;;;33.80;36.90;;;;;;927599;154;27413;-77
2022/07/30 11:32:47;;;;;;;3.27;2.10;;;33.80;36.90;;;;;;928688;152;27347;-76
2022/07/30 11:35:20;;;;;;;2.80;1.98;;;33.70;36.90;;;;;;927575;152;27359;-77
2022/07/30 11:37:57;;;;;;;2.58;2.08;;;33.60;37.00;;;;;;927932;154;27511;-76
2022/07/30 11:40:24;;;;;;;2.85;2.30;;;33.50;37.10;;;;;;946674;148;27300;-78
2022/07/30 11:42:50;;;;;;;2.20;2.05;;;33.40;37.10;;;;;;944911;149;27339;-76
2022/07/30 11:45:17;;;;;;;2.72;2.50;;;33.40;37.00;;;;;;928411;154;27320;-76
2022/07/30 11:47:46;;;;;;;5.28;2.10;;;33.30;37.10;;;;;;945659;148;27283;-78
2022/07/30 11:50:22;;;;;;;2.98;2.22;;;33.30;37.10;;;;;;930393;153;27378;-76
2022/07/30 11:52:54;;;;;;;1.80;1.67;;;33.30;37.00;;;;;;930198;154;27439;-76
2022/07/30 11:55:35;;;;;;;3.25;2.00;;;33.40;36.90;;;;;;928404;151;27454;-77
2022/07/30 11:58:02;;;;;;;2.70;1.80;;;33.40;36.90;;;;;;945884;148;27340;-78
2022/07/30 12:00:35;;;;;;;3.47;2.30;;;33.40;36.90;;;;;;929593;154;27346;-77
2022/07/30 12:03:01;;;;;;;1.90;1.80;;;33.40;37.10;;;;;;944831;149;27287;-77
2022/07/30 12:05:28;;;;;;;1.90;1.80;;;33.40;37.00;;;;;;926594;153;27319;-76
2022/07/30 12:07:58;;;;;;;3.50;2.27;;;33.40;36.80;;;;;;929748;154;27385;-76
2022/07/30 12:10:24;;;;;;;2.87;2.00;;;33.40;36.70;;;;;;945078;151;27372;-77
2022/07/30 12:12:51;;;;;;;3.75;2.20;;;33.40;36.80;;;;;;931791;151;27345;-76
2022/07/30 12:15:29;;;;;;;2.60;2.20;;;33.40;36.90;;;;;;945266;148;27646;-76
2022/07/30 12:17:56;;;;;;;2.70;2.30;;;33.40;36.90;;;;;;944323;148;27295;-77
2022/07/30 12:20:22;;;;;;;2.27;2.08;;;33.40;37.00;;;;;;945302;148;27657;-77
2022/07/30 12:22:49;;;;;;;3.27;2.10;;;33.30;36.20;;;;;;930859;152;27349;-77
2022/07/30 12:27:50;;;;;;;2.52;1.95;;;33.30;36.40;;;;;;975211;144;37316;-76
2022/07/30 12:30:16;;;;;;;2.87;1.77;;;33.30;36.40;;;;;;963323;147;27443;-76
2022/07/30 12:32:43;;;;;;;1.62;1.52;;;33.30;36.60;;;;;;962810;147;27336;-75
2022/07/30 12:35:09;;;;;;;1.77;1.67;;;33.30;36.50;;;;;;962290;147;27295;-77
2022/07/30 12:37:36;;;;;;;1.70;1.60;;;33.30;36.80;;;;;;962661;147;27221;-76
2022/07/30 12:40:16;;;;;;;2.42;1.57;;;33.40;36.50;;;;;;960866;147;27277;-76
2022/07/30 12:42:53;;;;;;;3.02;1.45;;;33.50;36.40;;;;;;962148;147;27270;-76
2022/07/30 12:45:31;;;;;;;1.37;1.32;;;33.50;36.30;;;;;;961755;147;27315;-75
2022/07/30 12:47:58;;;;;;;2.08;1.57;;;33.60;36.10;;;;;;961584;147;27339;-76
2022/07/30 12:50:25;;;;;;;1.95;1.40;;;33.60;36.20;;;;;;961650;147;28023;-76